Sao Francisco De Goias, Brazil
Current Conditions -  °F | °C
As of 10:00 AM on Friday 24 Oct 2014 (Local Time) from SBAN Reporting Station
Clear Clear  
Wind Chill: 73°   Ceiling: Unl
Heat Index: 73°   Visibility: 6mi
Dew Point: 61°   Wind: 13mph
Humidity: 65%   Direction: 90°E
Pressure: 30.15"   Gusts: NA
Location:  15.93°S, 49.27°W
Report Text: SBAN 241200Z 09011KT CAVOK 23/16 Q1021
Loading
Personal Weather Stations






























Interactive Weather Map
Tropical Storm Tracking
New forecast layout! Learn more

10-Day Weather Forecast

Advertisements
Track Severe Weather on mobile